sensor_id;sensor_type;location;lat;lon;timestamp;pressure;altitude;pressure_sealevel;temperature;humidity
51617;BME280;37697;52.588;13.394;2023-08-31T00:01:17;100056.73;;;14.53;95.14
51617;BME280;37697;52.588;13.394;2023-08-31T00:06:42;100057.11;;;14.55;95.07
51617;BME280;37697;52.588;13.394;2023-08-31T00:12:08;100051.30;;;14.57;94.87
51617;BME280;37697;52.588;13.394;2023-08-31T00:17:34;100054.02;;;14.57;94.75
51617;BME280;37697;52.588;13.394;2023-08-31T00:23:00;100053.09;;;14.60;94.66
51617;BME280;37697;52.588;13.394;2023-08-31T00:28:26;100054.36;;;14.60;94.72
51617;BME280;37697;52.588;13.394;2023-08-31T00:33:52;100049.14;;;14.60;94.77
51617;BME280;37697;52.588;13.394;2023-08-31T00:39:17;100042.71;;;14.59;94.71
51617;BME280;37697;52.588;13.394;2023-08-31T00:44:43;100043.98;;;14.58;94.82
51617;BME280;37697;52.588;13.394;2023-08-31T00:50:10;100039.52;;;14.54;94.86
51617;BME280;37697;52.588;13.394;2023-08-31T00:55:36;100049.77;;;14.53;94.99
51617;BME280;37697;52.588;13.394;2023-08-31T01:01:08;100045.58;;;14.51;95.31
51617;BME280;37697;52.588;13.394;2023-08-31T01:06:47;100048.38;;;14.49;95.63
51617;BME280;37697;52.588;13.394;2023-08-31T01:12:21;100053.04;;;14.47;96.04
51617;BME280;37697;52.588;13.394;2023-08-31T01:17:50;100057.15;;;14.44;96.16
51617;BME280;37697;52.588;13.394;2023-08-31T01:23:21;100063.52;;;14.43;96.48
51617;BME280;37697;52.588;13.394;2023-08-31T01:28:51;100069.82;;;14.40;97.03
51617;BME280;37697;52.588;13.394;2023-08-31T01:34:17;100077.58;;;14.39;97.60
51617;BME280;37697;52.588;13.394;2023-08-31T01:39:48;100083.33;;;14.39;97.73
51617;BME280;37697;52.588;13.394;2023-08-31T01:45:20;100087.91;;;14.34;97.78
51617;BME280;37697;52.588;13.394;2023-08-31T01:50:46;100093.86;;;14.32;98.05
51617;BME280;37697;52.588;13.394;2023-08-31T01:56:12;100094.86;;;14.27;97.69
51617;BME280;37697;52.588;13.394;2023-08-31T02:01:38;100090.82;;;14.19;97.50
51617;BME280;37697;52.588;13.394;2023-08-31T02:07:04;100093.15;;;14.18;97.62
51617;BME280;37697;52.588;13.394;2023-08-31T02:12:30;100098.98;;;14.15;97.78
51617;BME280;37697;52.588;13.394;2023-08-31T02:17:55;100108.20;;;14.12;98.23
51617;BME280;37697;52.588;13.394;2023-08-31T02:23:21;100120.16;;;14.03;97.96
51617;BME280;37697;52.588;13.394;2023-08-31T02:28:47;100129.08;;;13.86;97.60
51617;BME280;37697;52.588;13.394;2023-08-31T02:34:12;100124.56;;;13.71;97.95
51617;BME280;37697;52.588;13.394;2023-08-31T02:39:39;100123.40;;;13.63;97.91
51617;BME280;37697;52.588;13.394;2023-08-31T02:45:06;100126.03;;;13.59;98.06
51617;BME280;37697;52.588;13.394;2023-08-31T02:50:32;100131.06;;;13.56;98.29
51617;BME280;37697;52.588;13.394;2023-08-31T02:55:57;100134.48;;;13.51;98.21
51617;BME280;37697;52.588;13.394;2023-08-31T03:01:23;100139.52;;;13.50;98.44
51617;BME280;37697;52.588;13.394;2023-08-31T03:06:49;100137.02;;;13.47;98.39
51617;BME280;37697;52.588;13.394;2023-08-31T03:12:15;100142.27;;;13.46;98.65
51617;BME280;37697;52.588;13.394;2023-08-31T03:17:41;100139.67;;;13.41;98.65
51617;BME280;37697;52.588;13.394;2023-08-31T03:23:06;100148.26;;;13.37;98.71
51617;BME280;37697;52.588;13.394;2023-08-31T03:28:32;100150.86;;;13.29;98.90
51617;BME280;37697;52.588;13.394;2023-08-31T03:33:58;100152.26;;;13.24;99.47
51617;BME280;37697;52.588;13.394;2023-08-31T03:39:24;100159.98;;;13.23;99.65
51617;BME280;37697;52.588;13.394;2023-08-31T03:44:49;100163.44;;;13.19;99.36
51617;BME280;37697;52.588;13.394;2023-08-31T03:50:15;100162.30;;;13.15;99.31
51617;BME280;37697;52.588;13.394;2023-08-31T03:55:41;100163.52;;;13.12;99.61
51617;BME280;37697;52.588;13.394;2023-08-31T04:01:07;100172.30;;;13.10;99.96
51617;BME280;37697;52.588;13.394;2023-08-31T04:06:32;100176.23;;;13.12;99.97
51617;BME280;37697;52.588;13.394;2023-08-31T04:11:58;100180.86;;;13.12;100.00
51617;BME280;37697;52.588;13.394;2023-08-31T04:17:24;100184.48;;;13.12;100.00
51617;BME280;37697;52.588;13.394;2023-08-31T04:22:50;100190.36;;;13.11;100.00
51617;BME280;37697;52.588;13.394;2023-08-31T04:28:12;100195.52;;;13.07;100.00
51617;BME280;37697;52.588;13.394;2023-08-31T04:33:39;100196.11;;;13.05;100.00
51617;BME280;37697;52.588;13.394;2023-08-31T04:39:05;100200.96;;;13.04;100.00
51617;BME280;37697;52.588;13.394;2023-08-31T04:44:30;100203.45;;;13.02;100.00
51617;BME280;37697;52.588;13.394;2023-08-31T04:49:56;100207.39;;;13.01;100.00
51617;BME280;37697;52.588;13.394;2023-08-31T04:55:23;100209.95;;;12.99;100.00
51617;BME280;37697;52.588;13.394;2023-08-31T05:00:49;100214.68;;;12.99;100.00
51617;BME280;37697;52.588;13.394;2023-08-31T05:06:15;100217.47;;;13.02;100.00
51617;BME280;37697;52.588;13.394;2023-08-31T05:11:41;100218.25;;;13.01;100.00
51617;BME280;37697;52.588;13.394;2023-08-31T05:17:06;100212.83;;;13.04;100.00
51617;BME280;37697;52.588;13.394;2023-08-31T05:22:32;100210.77;;;13.08;100.00
51617;BME280;37697;52.588;13.394;2023-08-31T05:27:58;100210.50;;;13.17;100.00
51617;BME280;37697;52.588;13.394;2023-08-31T05:33:24;100217.19;;;13.24;100.00
51617;BME280;37697;52.588;13.394;2023-08-31T05:38:51;100226.89;;;13.30;100.00
51617;BME280;37697;52.588;13.394;2023-08-31T05:44:19;100241.38;;;13.32;100.00
51617;BME280;37697;52.588;13.394;2023-08-31T05:49:45;100248.38;;;13.31;100.00
51617;BME280;37697;52.588;13.394;2023-08-31T05:55:11;100252.44;;;13.32;100.00
51617;BME280;37697;52.588;13.394;2023-08-31T06:00:37;100253.64;;;13.32;100.00
51617;BME280;37697;52.588;13.394;2023-08-31T06:06:02;100261.05;;;13.35;100.00
51617;BME280;37697;52.588;13.394;2023-08-31T06:11:37;100262.91;;;13.40;100.00
51617;BME280;37697;52.588;13.394;2023-08-31T06:17:02;100263.39;;;13.45;100.00
51617;BME280;37697;52.588;13.394;2023-08-31T06:22:28;100271.16;;;13.49;100.00
51617;BME280;37697;52.588;13.394;2023-08-31T06:27:54;100275.97;;;13.51;100.00
51617;BME280;37697;52.588;13.394;2023-08-31T06:33:20;100282.98;;;13.53;100.00
51617;BME280;37697;52.588;13.394;2023-08-31T06:38:45;100282.92;;;13.53;100.00
51617;BME280;37697;52.588;13.394;2023-08-31T06:44:12;100284.86;;;13.58;100.00
51617;BME280;37697;52.588;13.394;2023-08-31T06:49:37;100287.71;;;13.66;100.00
51617;BME280;37697;52.588;13.394;2023-08-31T06:55:03;100295.77;;;13.76;100.00
51617;BME280;37697;52.588;13.394;2023-08-31T07:00:29;100295.74;;;13.88;100.00
51617;BME280;37697;52.588;13.394;2023-08-31T07:05:55;100300.98;;;13.97;100.00
51617;BME280;37697;52.588;13.394;2023-08-31T07:11:21;100303.61;;;14.08;100.00
51617;BME280;37697;52.588;13.394;2023-08-31T07:16:46;100308.44;;;14.16;100.00
51617;BME280;37697;52.588;13.394;2023-08-31T07:22:12;100316.13;;;14.23;100.00
51617;BME280;37697;52.588;13.394;2023-08-31T07:27:38;100314.55;;;14.31;100.00
51617;BME280;37697;52.588;13.394;2023-08-31T07:33:05;100322.34;;;14.35;100.00
51617;BME280;37697;52.588;13.394;2023-08-31T07:38:35;100327.93;;;14.40;100.00
51617;BME280;37697;52.588;13.394;2023-08-31T07:44:01;100337.87;;;14.46;100.00
51617;BME280;37697;52.588;13.394;2023-08-31T07:49:27;100350.74;;;14.54;100.00
51617;BME280;37697;52.588;13.394;2023-08-31T07:54:52;100352.83;;;14.54;99.77
51617;BME280;37697;52.588;13.394;2023-08-31T08:00:19;100361.07;;;14.56;99.77
51617;BME280;37697;52.588;13.394;2023-08-31T08:05:45;100366.69;;;14.60;99.72
51617;BME280;37697;52.588;13.394;2023-08-31T08:11:11;100375.98;;;14.72;99.01
51617;BME280;37697;52.588;13.394;2023-08-31T08:16:37;100378.33;;;15.00;98.50
51617;BME280;37697;52.588;13.394;2023-08-31T08:22:03;100380.99;;;15.43;97.34
51617;BME280;37697;52.588;13.394;2023-08-31T08:27:28;100386.14;;;15.73;95.82
51617;BME280;37697;52.588;13.394;2023-08-31T08:32:55;100384.23;;;15.98;93.70
51617;BME280;37697;52.588;13.394;2023-08-31T08:38:21;100385.56;;;15.80;91.65
51617;BME280;37697;52.588;13.394;2023-08-31T08:43:48;100387.65;;;15.81;91.44
51617;BME280;37697;52.588;13.394;2023-08-31T08:49:14;100387.04;;;16.14;91.63
51617;BME280;37697;52.588;13.394;2023-08-31T08:54:41;100379.64;;;16.43;90.39
51617;BME280;37697;52.588;13.394;2023-08-31T09:00:09;100381.56;;;16.90;89.87
51617;BME280;37697;52.588;13.394;2023-08-31T09:05:35;100378.77;;;17.37;87.56
51617;BME280;37697;52.588;13.394;2023-08-31T09:11:01;100381.77;;;17.45;86.46
51617;BME280;37697;52.588;13.394;2023-08-31T09:16:28;100388.45;;;17.30;83.57
51617;BME280;37697;52.588;13.394;2023-08-31T09:21:56;100383.36;;;17.03;82.09
51617;BME280;37697;52.588;13.394;2023-08-31T09:27:23;100386.89;;;16.87;81.83
51617;BME280;37697;52.588;13.394;2023-08-31T09:32:53;100391.05;;;16.72;81.84
51617;BME280;37697;52.588;13.394;2023-08-31T09:38:20;100398.59;;;16.55;81.05
51617;BME280;37697;52.588;13.394;2023-08-31T09:43:46;100396.20;;;16.63;81.77
51617;BME280;37697;52.588;13.394;2023-08-31T09:49:15;100393.86;;;16.73;81.69
51617;BME280;37697;52.588;13.394;2023-08-31T09:54:43;100385.23;;;16.61;81.27
51617;BME280;37697;52.588;13.394;2023-08-31T10:00:12;100380.50;;;16.48;81.53
51617;BME280;37697;52.588;13.394;2023-08-31T10:05:29;100373.44;;;16.86;81.71
51617;BME280;37697;52.588;13.394;2023-08-31T10:11:00;100371.25;;;17.08;79.81
51617;BME280;37697;52.588;13.394;2023-08-31T10:16:19;100372.23;;;17.39;78.20
51617;BME280;37697;52.588;13.394;2023-08-31T10:21:46;100375.14;;;17.86;77.45
51617;BME280;37697;52.588;13.394;2023-08-31T10:27:21;100370.30;;;18.25;77.00
51617;BME280;37697;52.588;13.394;2023-08-31T10:32:47;100378.19;;;18.21;74.76
51617;BME280;37697;52.588;13.394;2023-08-31T10:38:30;100387.95;;;17.86;73.49
51617;BME280;37697;52.588;13.394;2023-08-31T10:43:58;100393.27;;;17.35;73.84
51617;BME280;37697;52.588;13.394;2023-08-31T10:49:24;100413.02;;;16.78;75.26
51617;BME280;37697;52.588;13.394;2023-08-31T10:54:55;100417.84;;;16.40;77.30
51617;BME280;37697;52.588;13.394;2023-08-31T11:00:47;100416.65;;;16.32;79.25
51617;BME280;37697;52.588;13.394;2023-08-31T11:06:16;100417.02;;;16.34;80.23
51617;BME280;37697;52.588;13.394;2023-08-31T11:11:46;100419.17;;;16.35;80.76
51617;BME280;37697;52.588;13.394;2023-08-31T11:17:12;100409.88;;;16.29;80.61
51617;BME280;37697;52.588;13.394;2023-08-31T11:22:42;100400.17;;;16.13;81.46
51617;BME280;37697;52.588;13.394;2023-08-31T11:28:08;100394.91;;;16.43;81.53
51617;BME280;37697;52.588;13.394;2023-08-31T11:33:34;100392.83;;;16.76;80.45
51617;BME280;37697;52.588;13.394;2023-08-31T11:39:01;100384.75;;;16.74;79.60
51617;BME280;37697;52.588;13.394;2023-08-31T11:44:29;100379.05;;;16.52;79.67
51617;BME280;37697;52.588;13.394;2023-08-31T11:49:56;100381.18;;;16.71;80.37
51617;BME280;37697;52.588;13.394;2023-08-31T11:55:22;100381.02;;;16.96;80.59
51617;BME280;37697;52.588;13.394;2023-08-31T12:00:55;100392.68;;;16.87;79.27
51617;BME280;37697;52.588;13.394;2023-08-31T12:06:22;100390.59;;;17.06;79.84
51617;BME280;37697;52.588;13.394;2023-08-31T12:11:52;100399.46;;;17.66;78.37
51617;BME280;37697;52.588;13.394;2023-08-31T12:17:10;100395.46;;;17.96;77.36
51617;BME280;37697;52.588;13.394;2023-08-31T12:22:36;100387.95;;;17.99;75.08
51617;BME280;37697;52.588;13.394;2023-08-31T12:28:02;100392.89;;;18.45;74.99
51617;BME280;37697;52.588;13.394;2023-08-31T12:33:28;100385.95;;;18.99;74.25
51617;BME280;37697;52.588;13.394;2023-08-31T12:38:54;100381.98;;;19.52;73.75
51617;BME280;37697;52.588;13.394;2023-08-31T12:44:19;100383.98;;;19.75;71.59
51617;BME280;37697;52.588;13.394;2023-08-31T12:49:45;100384.70;;;19.96;71.65
51617;BME280;37697;52.588;13.394;2023-08-31T12:55:11;100384.95;;;20.13;69.25
51617;BME280;37697;52.588;13.394;2023-08-31T13:00:37;100382.06;;;20.28;68.10
51617;BME280;37697;52.588;13.394;2023-08-31T13:06:03;100381.64;;;20.44;66.47
51617;BME280;37697;52.588;13.394;2023-08-31T13:11:28;100376.66;;;20.49;64.40
51617;BME280;37697;52.588;13.394;2023-08-31T13:16:54;100375.39;;;20.31;65.01
51617;BME280;37697;52.588;13.394;2023-08-31T13:22:20;100367.74;;;20.39;64.74
51617;BME280;37697;52.588;13.394;2023-08-31T13:27:46;100365.90;;;20.62;65.06
51617;BME280;37697;52.588;13.394;2023-08-31T13:33:15;100370.52;;;20.44;61.89
51617;BME280;37697;52.588;13.394;2023-08-31T13:38:41;100378.20;;;20.21;60.82
51617;BME280;37697;52.588;13.394;2023-08-31T13:44:06;100375.86;;;20.14;61.62
51617;BME280;37697;52.588;13.394;2023-08-31T13:49:32;100373.70;;;20.02;60.78
51617;BME280;37697;52.588;13.394;2023-08-31T13:54:57;100379.47;;;19.88;61.02
51617;BME280;37697;52.588;13.394;2023-08-31T14:00:23;100387.09;;;19.71;60.67
51617;BME280;37697;52.588;13.394;2023-08-31T14:05:50;100401.33;;;19.23;60.40
51617;BME280;37697;52.588;13.394;2023-08-31T14:11:18;100410.30;;;18.70;61.03
51617;BME280;37697;52.588;13.394;2023-08-31T14:16:45;100410.69;;;18.15;62.56
51617;BME280;37697;52.588;13.394;2023-08-31T14:22:11;100426.46;;;17.77;64.14
51617;BME280;37697;52.588;13.394;2023-08-31T14:27:36;100427.67;;;17.43;64.17
51617;BME280;37697;52.588;13.394;2023-08-31T14:33:02;100430.17;;;17.26;64.55
51617;BME280;37697;52.588;13.394;2023-08-31T14:38:28;100445.83;;;17.05;64.86
51617;BME280;37697;52.588;13.394;2023-08-31T14:43:54;100494.31;;;16.80;65.24
51617;BME280;37697;52.588;13.394;2023-08-31T14:49:21;100510.49;;;16.20;65.66
51617;BME280;37697;52.588;13.394;2023-08-31T14:54:47;100511.30;;;15.74;66.66
51617;BME280;37697;52.588;13.394;2023-08-31T14:59:53;100511.27;;;15.46;67.30
51617;BME280;37697;52.588;13.394;2023-08-31T15:05:19;100515.27;;;15.38;68.54
51617;BME280;37697;52.588;13.394;2023-08-31T15:10:45;100513.73;;;15.23;68.40
51617;BME280;37697;52.588;13.394;2023-08-31T15:16:11;100505.96;;;15.13;69.41
51617;BME280;37697;52.588;13.394;2023-08-31T15:21:37;100502.41;;;15.14;69.91
51617;BME280;37697;52.588;13.394;2023-08-31T15:27:03;100504.10;;;15.20;70.64
51617;BME280;37697;52.588;13.394;2023-08-31T15:32:29;100525.54;;;15.28;70.72
51617;BME280;37697;52.588;13.394;2023-08-31T15:37:55;100533.33;;;15.18;71.47
51617;BME280;37697;52.588;13.394;2023-08-31T15:43:20;100525.17;;;14.84;72.57
51617;BME280;37697;52.588;13.394;2023-08-31T15:48:46;100514.52;;;14.77;74.34
51617;BME280;37697;52.588;13.394;2023-08-31T15:54:14;100508.38;;;14.75;74.83
51617;BME280;37697;52.588;13.394;2023-08-31T15:59:40;100502.18;;;14.84;76.10
51617;BME280;37697;52.588;13.394;2023-08-31T16:05:08;100509.07;;;14.73;76.02
51617;BME280;37697;52.588;13.394;2023-08-31T16:10:33;100508.46;;;14.76;76.99
51617;BME280;37697;52.588;13.394;2023-08-31T16:15:59;100504.85;;;14.72;76.61
51617;BME280;37697;52.588;13.394;2023-08-31T16:21:25;100505.89;;;14.67;77.15
51617;BME280;37697;52.588;13.394;2023-08-31T16:26:51;100505.44;;;14.67;77.48
51617;BME280;37697;52.588;13.394;2023-08-31T16:32:17;100500.51;;;14.63;77.28
51617;BME280;37697;52.588;13.394;2023-08-31T16:37:43;100492.70;;;14.64;77.67
51617;BME280;37697;52.588;13.394;2023-08-31T16:43:09;100493.70;;;14.63;76.82
51617;BME280;37697;52.588;13.394;2023-08-31T16:48:35;100497.11;;;14.61;76.17
51617;BME280;37697;52.588;13.394;2023-08-31T16:54:01;100502.53;;;14.62;76.06
51617;BME280;37697;52.588;13.394;2023-08-31T16:59:27;100507.30;;;14.56;75.32
51617;BME280;37697;52.588;13.394;2023-08-31T17:04:54;100511.02;;;14.47;75.53
51617;BME280;37697;52.588;13.394;2023-08-31T17:10:20;100520.52;;;14.37;75.69
51617;BME280;37697;52.588;13.394;2023-08-31T17:15:46;100520.61;;;14.27;76.33
51617;BME280;37697;52.588;13.394;2023-08-31T17:21:14;100527.10;;;14.17;76.87
51617;BME280;37697;52.588;13.394;2023-08-31T17:26:40;100529.73;;;14.06;76.78
51617;BME280;37697;52.588;13.394;2023-08-31T17:32:06;100524.64;;;13.90;76.68
51617;BME280;37697;52.588;13.394;2023-08-31T17:37:33;100524.61;;;13.77;76.68
51617;BME280;37697;52.588;13.394;2023-08-31T17:42:59;100518.53;;;13.62;77.21
51617;BME280;37697;52.588;13.394;2023-08-31T17:48:25;100521.57;;;13.52;77.24
51617;BME280;37697;52.588;13.394;2023-08-31T17:53:51;100530.18;;;13.44;77.50
51617;BME280;37697;52.588;13.394;2023-08-31T17:59:17;100535.66;;;13.36;78.47
51617;BME280;37697;52.588;13.394;2023-08-31T18:04:43;100532.45;;;13.21;79.85
51617;BME280;37697;52.588;13.394;2023-08-31T18:10:10;100533.42;;;13.01;80.77
51617;BME280;37697;52.588;13.394;2023-08-31T18:15:25;100543.14;;;12.94;81.83
51617;BME280;37697;52.588;13.394;2023-08-31T18:20:51;100557.70;;;12.92;82.13
51617;BME280;37697;52.588;13.394;2023-08-31T18:26:21;100556.48;;;12.92;83.04
51617;BME280;37697;52.588;13.394;2023-08-31T18:31:47;100563.94;;;12.86;83.56
51617;BME280;37697;52.588;13.394;2023-08-31T18:37:13;100569.30;;;12.81;84.04
51617;BME280;37697;52.588;13.394;2023-08-31T18:42:39;100574.23;;;12.79;84.66
51617;BME280;37697;52.588;13.394;2023-08-31T18:48:05;100568.61;;;12.77;84.79
51617;BME280;37697;52.588;13.394;2023-08-31T18:53:31;100569.05;;;12.69;84.90
51617;BME280;37697;52.588;13.394;2023-08-31T18:58:57;100571.48;;;12.59;85.05
51617;BME280;37697;52.588;13.394;2023-08-31T19:04:23;100573.03;;;12.51;85.28
51617;BME280;37697;52.588;13.394;2023-08-31T19:09:49;100577.48;;;12.47;85.69
51617;BME280;37697;52.588;13.394;2023-08-31T19:15:16;100577.50;;;12.38;85.71
51617;BME280;37697;52.588;13.394;2023-08-31T19:20:43;100577.27;;;12.28;85.99
51617;BME280;37697;52.588;13.394;2023-08-31T19:26:22;100584.32;;;12.27;86.19
51617;BME280;37697;52.588;13.394;2023-08-31T19:31:47;100578.45;;;12.24;86.41
51617;BME280;37697;52.588;13.394;2023-08-31T19:37:13;100576.64;;;12.19;86.47
51617;BME280;37697;52.588;13.394;2023-08-31T19:42:39;100580.70;;;12.10;86.57
51617;BME280;37697;52.588;13.394;2023-08-31T19:48:06;100587.98;;;12.02;86.83
51617;BME280;37697;52.588;13.394;2023-08-31T19:53:32;100594.71;;;11.96;87.42
51617;BME280;37697;52.588;13.394;2023-08-31T19:58:58;100604.98;;;11.91;87.62
51617;BME280;37697;52.588;13.394;2023-08-31T20:04:24;100606.45;;;11.90;88.22
51617;BME280;37697;52.588;13.394;2023-08-31T20:09:40;100610.56;;;11.87;88.30
51617;BME280;37697;52.588;13.394;2023-08-31T20:15:08;100606.80;;;11.86;88.87
51617;BME280;37697;52.588;13.394;2023-08-31T20:20:33;100608.80;;;11.88;89.34
51617;BME280;37697;52.588;13.394;2023-08-31T20:25:59;100618.80;;;11.89;89.48
51617;BME280;37697;52.588;13.394;2023-08-31T20:31:25;100627.42;;;11.92;89.57
51617;BME280;37697;52.588;13.394;2023-08-31T20:36:51;100629.22;;;11.91;89.72
51617;BME280;37697;52.588;13.394;2023-08-31T20:42:08;100630.21;;;11.86;89.77
51617;BME280;37697;52.588;13.394;2023-08-31T20:47:24;100631.98;;;11.81;90.11
51617;BME280;37697;52.588;13.394;2023-08-31T20:52:38;100635.65;;;11.80;90.26
51617;BME280;37697;52.588;13.394;2023-08-31T20:58:04;100638.84;;;11.81;90.62
51617;BME280;37697;52.588;13.394;2023-08-31T21:03:23;100645.91;;;11.78;90.62
51617;BME280;37697;52.588;13.394;2023-08-31T21:08:49;100648.77;;;11.76;91.02
51617;BME280;37697;52.588;13.394;2023-08-31T21:14:04;100651.16;;;11.78;91.28
51617;BME280;37697;52.588;13.394;2023-08-31T21:19:30;100653.56;;;11.74;91.37
51617;BME280;37697;52.588;13.394;2023-08-31T21:24:56;100659.48;;;11.71;91.71
51617;BME280;37697;52.588;13.394;2023-08-31T21:30:21;100664.73;;;11.71;92.21
51617;BME280;37697;52.588;13.394;2023-08-31T21:35:42;100666.94;;;11.72;92.62
51617;BME280;37697;52.588;13.394;2023-08-31T21:41:04;100667.06;;;11.74;93.13
51617;BME280;37697;52.588;13.394;2023-08-31T21:46:30;100671.80;;;11.78;93.27
51617;BME280;37697;52.588;13.394;2023-08-31T21:51:56;100671.30;;;11.82;93.81
51617;BME280;37697;52.588;13.394;2023-08-31T21:57:05;100673.28;;;11.85;93.87
51617;BME280;37697;52.588;13.394;2023-08-31T22:02:24;100680.38;;;11.86;93.94
51617;BME280;37697;52.588;13.394;2023-08-31T22:07:51;100679.83;;;11.88;93.88
51617;BME280;37697;52.588;13.394;2023-08-31T22:13:18;100685.45;;;11.91;93.86
51617;BME280;37697;52.588;13.394;2023-08-31T22:18:44;100688.56;;;11.93;93.66
51617;BME280;37697;52.588;13.394;2023-08-31T22:24:10;100689.29;;;11.95;93.97
51617;BME280;37697;52.588;13.394;2023-08-31T22:29:28;100687.95;;;11.98;94.15
51617;BME280;37697;52.588;13.394;2023-08-31T22:34:54;100690.59;;;12.00;93.90
51617;BME280;37697;52.588;13.394;2023-08-31T22:40:21;100689.63;;;12.02;94.05
51617;BME280;37697;52.588;13.394;2023-08-31T22:45:55;100685.98;;;12.01;93.63
51617;BME280;37697;52.588;13.394;2023-08-31T22:51:21;100678.30;;;11.97;93.60
51617;BME280;37697;52.588;13.394;2023-08-31T22:56:47;100679.06;;;11.93;93.69
51617;BME280;37697;52.588;13.394;2023-08-31T23:08:54;100683.05;;;11.85;93.77
51617;BME280;37697;52.588;13.394;2023-08-31T23:14:12;100679.20;;;11.79;93.82
51617;BME280;37697;52.588;13.394;2023-08-31T23:19:38;100688.30;;;11.75;93.75
51617;BME280;37697;52.588;13.394;2023-08-31T23:24:58;100691.37;;;11.71;93.78
51617;BME280;37697;52.588;13.394;2023-08-31T23:30:23;100691.73;;;11.66;93.97
51617;BME280;37697;52.588;13.394;2023-08-31T23:35:50;100695.64;;;11.63;94.32
51617;BME280;37697;52.588;13.394;2023-08-31T23:41:17;100698.80;;;11.57;94.37
51617;BME280;37697;52.588;13.394;2023-08-31T23:46:43;100701.29;;;11.53;94.57
51617;BME280;37697;52.588;13.394;2023-08-31T23:52:09;100710.55;;;11.51;94.69
51617;BME280;37697;52.588;13.394;2023-08-31T23:57:34;100712.49;;;11.48;94.67
